Time;durP1;ratioP1;P1;durP2;ratioP2;P2;SDS_P1;SDS_P2;PMS_P1;PMS_P2;Temp;Humidity;BMP_temperature;BMP_pressure;BME280_temperature;BME280_humidity;BME280_pressure;Samples;Min_cycle;Max_cycle;Signal;HPM_P1;HPM_P2
2023/05/06 00:02:28;;;;;;;2.43;2.23;;;13.90;99.90;;;;;;5051138;28;20496;-67
2023/05/06 00:04:57;;;;;;;4.63;2.53;;;13.90;99.90;;;;;;5051549;28;20446;-66
2023/05/06 00:07:24;;;;;;;2.50;2.30;;;13.90;99.90;;;;;;5050803;28;20970;-66
2023/05/06 00:09:51;;;;;;;3.43;2.37;;;13.80;99.90;;;;;;5051191;28;20939;-66
2023/05/06 00:12:17;;;;;;;2.47;2.27;;;13.90;99.90;;;;;;5050937;28;20471;-66
2023/05/06 00:14:44;;;;;;;6.10;2.70;;;13.90;99.90;;;;;;5050740;28;20495;-66
2023/05/06 00:17:11;;;;;;;2.20;2.00;;;13.80;99.90;;;;;;5050686;28;20483;-66
2023/05/06 00:19:38;;;;;;;2.90;2.47;;;13.80;99.90;;;;;;5050842;28;20455;-66
2023/05/06 00:22:12;;;;;;;3.40;2.60;;;13.80;99.90;;;;;;5050636;28;20459;-67
2023/05/06 00:24:39;;;;;;;2.87;2.60;;;13.80;99.90;;;;;;5036231;28;20460;-66
2023/05/06 00:27:05;;;;;;;3.40;2.40;;;13.80;99.90;;;;;;5050525;28;20493;-66
2023/05/06 00:29:32;;;;;;;3.13;2.83;;;13.70;99.90;;;;;;5050623;28;20489;-66
2023/05/06 00:31:59;;;;;;;3.03;2.50;;;13.70;99.90;;;;;;5050912;28;20463;-66
2023/05/06 00:34:26;;;;;;;3.10;2.60;;;13.60;99.90;;;;;;5050122;28;20511;-66
2023/05/06 00:36:53;;;;;;;2.77;2.50;;;13.60;99.90;;;;;;5050759;28;20990;-66
2023/05/06 00:39:21;;;;;;;2.50;2.30;;;13.50;99.90;;;;;;5050247;28;20976;-66
2023/05/06 00:41:48;;;;;;;2.57;2.37;;;13.40;99.90;;;;;;5050680;28;20463;-66
2023/05/06 00:44:14;;;;;;;3.20;2.77;;;13.40;99.90;;;;;;5049687;28;20458;-66
2023/05/06 00:46:43;;;;;;;3.37;2.60;;;13.40;99.90;;;;;;5050567;28;20844;-66
2023/05/06 00:49:11;;;;;;;2.97;2.70;;;13.40;99.90;;;;;;5049831;28;20460;-66
2023/05/06 00:51:38;;;;;;;2.70;2.50;;;13.40;99.90;;;;;;5050542;28;20870;-66
2023/05/06 00:54:05;;;;;;;2.57;2.33;;;13.40;99.90;;;;;;5050515;28;20510;-66
2023/05/06 00:56:33;;;;;;;2.67;2.47;;;13.30;99.90;;;;;;5050178;28;21033;-66
2023/05/06 00:59:01;;;;;;;2.80;2.50;;;13.30;99.90;;;;;;5050246;28;20455;-66
2023/05/06 01:01:30;;;;;;;3.83;2.77;;;13.30;99.90;;;;;;5126368;22;20495;-93
2023/05/06 01:03:57;;;;;;;2.63;2.43;;;13.30;99.90;;;;;;5083412;28;20462;-94
2023/05/06 01:06:29;;;;;;;2.43;2.23;;;13.30;99.90;;;;;;5073926;28;20863;-93
2023/05/06 01:09:01;;;;;;;2.83;2.60;;;13.30;99.90;;;;;;5076144;28;20455;-93
2023/05/06 01:11:35;;;;;;;2.07;1.93;;;13.30;99.90;;;;;;5070673;28;20577;-92
2023/05/06 01:14:09;;;;;;;3.20;2.47;;;13.30;99.90;;;;;;5072084;28;20510;-93
2023/05/06 01:16:39;;;;;;;2.70;2.50;;;13.30;99.90;;;;;;5055156;28;20461;-95
2023/05/06 01:19:09;;;;;;;3.07;2.33;;;13.20;99.90;;;;;;5071817;28;20555;-93
2023/05/06 01:21:40;;;;;;;2.33;2.13;;;13.20;99.90;;;;;;5071668;28;20498;-93
2023/05/06 01:24:08;;;;;;;2.20;2.00;;;13.10;99.90;;;;;;5070903;28;20486;-92
2023/05/06 01:26:35;;;;;;;2.37;2.10;;;13.10;99.90;;;;;;5069276;28;20535;-93
2023/05/06 01:29:02;;;;;;;2.80;1.80;;;13.10;99.90;;;;;;5071111;28;20472;-93
2023/05/06 01:31:36;;;;;;;2.50;2.30;;;13.10;99.90;;;;;;5068633;28;20467;-92
2023/05/06 01:34:10;;;;;;;3.93;2.00;;;13.10;99.90;;;;;;5070323;28;20483;-93
2023/05/06 01:36:44;;;;;;;2.37;2.17;;;13.10;99.90;;;;;;5052482;28;20554;-92
2023/05/06 01:39:17;;;;;;;2.20;2.00;;;13.10;99.90;;;;;;5073665;28;20562;-93
2023/05/06 01:41:47;;;;;;;2.33;2.13;;;13.10;99.90;;;;;;5060146;28;20449;-92
2023/05/06 01:44:15;;;;;;;2.67;2.10;;;13.10;99.90;;;;;;5075228;28;20467;-93
2023/05/06 01:46:44;;;;;;;2.30;2.10;;;13.10;99.90;;;;;;5075589;28;20515;-93
2023/05/06 01:49:14;;;;;;;1.80;1.70;;;13.10;99.90;;;;;;5073553;28;20461;-93
2023/05/06 01:51:46;;;;;;;2.33;2.13;;;13.10;99.90;;;;;;5072938;28;20467;-93
2023/05/06 01:54:15;;;;;;;1.80;1.67;;;13.10;99.90;;;;;;5071960;28;20506;-93
2023/05/06 01:56:42;;;;;;;4.00;2.50;;;13.10;99.90;;;;;;5072251;28;20518;-93
2023/05/06 01:59:09;;;;;;;1.97;1.77;;;13.10;99.90;;;;;;5072729;28;20816;-93
2023/05/06 02:01:36;;;;;;;2.40;2.20;;;13.10;99.90;;;;;;5074156;28;20555;-92
2023/05/06 02:04:02;;;;;;;2.03;1.87;;;13.00;99.90;;;;;;5073294;28;20458;-93
2023/05/06 02:06:30;;;;;;;2.20;2.00;;;13.00;99.90;;;;;;5073394;28;20459;-92
2023/05/06 02:08:57;;;;;;;3.93;1.93;;;13.00;99.90;;;;;;5073357;28;20487;-93
2023/05/06 02:11:25;;;;;;;2.90;1.93;;;13.00;99.90;;;;;;5073214;28;20562;-93
2023/05/06 02:13:52;;;;;;;2.40;2.13;;;13.00;99.90;;;;;;5072951;28;20509;-93
2023/05/06 02:16:20;;;;;;;2.23;1.87;;;13.00;99.90;;;;;;5072358;28;20481;-93
2023/05/06 02:18:47;;;;;;;2.00;1.90;;;13.00;99.90;;;;;;5072723;28;20468;-93
2023/05/06 02:21:14;;;;;;;2.07;1.80;;;13.00;99.90;;;;;;5072073;28;20543;-93
2023/05/06 02:23:41;;;;;;;3.17;1.93;;;13.00;99.90;;;;;;5063301;28;20466;-93
2023/05/06 02:26:08;;;;;;;2.00;1.80;;;13.00;99.90;;;;;;5073973;28;20471;-92
2023/05/06 02:28:36;;;;;;;1.60;1.50;;;13.10;99.90;;;;;;5072351;28;20961;-93
2023/05/06 02:31:03;;;;;;;2.27;2.07;;;13.10;99.90;;;;;;5070116;28;20459;-92
2023/05/06 02:33:29;;;;;;;1.90;1.80;;;13.00;99.90;;;;;;5072314;28;20467;-93
2023/05/06 02:35:56;;;;;;;2.17;1.97;;;13.00;99.90;;;;;;5071695;28;20471;-93
2023/05/06 02:38:23;;;;;;;1.77;1.60;;;13.00;99.90;;;;;;5071553;28;20466;-92
2023/05/06 02:40:50;;;;;;;2.60;2.40;;;13.00;99.90;;;;;;5071073;28;20483;-93
2023/05/06 02:43:17;;;;;;;2.20;2.00;;;13.00;99.90;;;;;;5071936;28;20456;-92
2023/05/06 02:45:45;;;;;;;1.90;1.80;;;12.90;99.90;;;;;;5075949;28;20466;-94
2023/05/06 02:48:12;;;;;;;1.70;1.60;;;12.90;99.90;;;;;;5079380;28;20454;-93
2023/05/06 02:50:39;;;;;;;2.33;2.13;;;12.90;99.90;;;;;;5079361;28;20455;-94
2023/05/06 02:53:07;;;;;;;2.10;1.90;;;12.90;99.90;;;;;;5079219;28;20453;-93
2023/05/06 02:55:34;;;;;;;2.43;2.23;;;12.80;99.90;;;;;;5076810;28;20481;-92
2023/05/06 02:58:01;;;;;;;2.80;1.90;;;12.80;99.90;;;;;;5074255;28;20492;-92
2023/05/06 03:00:28;;;;;;;2.07;1.87;;;12.80;99.90;;;;;;5073717;28;20490;-93
2023/05/06 03:02:56;;;;;;;2.90;2.00;;;12.80;99.90;;;;;;5072684;28;20523;-93
2023/05/06 03:05:23;;;;;;;2.40;2.20;;;12.80;99.90;;;;;;5072283;28;20463;-94
2023/05/06 03:07:50;;;;;;;2.60;2.07;;;12.70;99.90;;;;;;5072571;28;20459;-93
2023/05/06 03:10:17;;;;;;;2.50;2.30;;;12.70;99.90;;;;;;5073328;28;20479;-93
2023/05/06 03:12:43;;;;;;;3.07;2.77;;;12.70;99.90;;;;;;5076295;28;20463;-92
2023/05/06 03:15:11;;;;;;;2.00;1.90;;;12.70;99.90;;;;;;5072474;28;20547;-92
2023/05/06 03:17:38;;;;;;;2.37;2.03;;;12.60;99.90;;;;;;5072546;28;20479;-94
2023/05/06 03:20:08;;;;;;;2.83;2.50;;;12.60;99.90;;;;;;5071970;28;20483;-94
2023/05/06 03:22:35;;;;;;;1.77;1.67;;;12.50;99.90;;;;;;5071253;28;20490;-94
2023/05/06 03:25:02;;;;;;;3.00;2.20;;;12.50;99.90;;;;;;5071325;28;20450;-94
2023/05/06 03:27:29;;;;;;;2.50;2.30;;;12.50;99.90;;;;;;5071966;28;20459;-94
2023/05/06 03:29:55;;;;;;;2.23;2.13;;;12.50;99.90;;;;;;5073335;28;20558;-94
2023/05/06 03:32:22;;;;;;;2.20;2.00;;;12.40;99.90;;;;;;5072378;28;20462;-94
2023/05/06 03:34:49;;;;;;;3.50;2.60;;;12.40;99.90;;;;;;5067308;28;20509;-94
2023/05/06 03:37:18;;;;;;;2.37;1.83;;;12.40;99.90;;;;;;5068666;28;20459;-94
2023/05/06 03:39:45;;;;;;;2.50;1.90;;;12.30;99.90;;;;;;5066744;28;20493;-94
2023/05/06 03:42:12;;;;;;;2.47;2.27;;;12.30;99.90;;;;;;5067478;28;20462;-94
2023/05/06 03:44:39;;;;;;;2.10;1.97;;;12.30;99.90;;;;;;5068095;28;20470;-95
2023/05/06 03:47:06;;;;;;;2.30;2.10;;;12.30;99.90;;;;;;5067626;28;20459;-95
2023/05/06 03:49:33;;;;;;;2.97;2.77;;;12.30;99.90;;;;;;5069098;28;20554;-93
2023/05/06 03:52:00;;;;;;;3.00;2.70;;;12.30;99.90;;;;;;5070086;28;20518;-93
2023/05/06 03:54:28;;;;;;;3.13;2.50;;;12.30;99.90;;;;;;5069388;28;20495;-94
2023/05/06 03:56:55;;;;;;;2.63;2.43;;;12.30;99.90;;;;;;5068339;28;20469;-94
2023/05/06 03:59:22;;;;;;;3.00;2.60;;;12.30;99.90;;;;;;5064465;28;20487;-94
2023/05/06 04:01:49;;;;;;;2.77;2.47;;;12.30;99.90;;;;;;5064212;28;20463;-94
2023/05/06 04:04:15;;;;;;;5.73;2.70;;;12.20;99.90;;;;;;5064115;28;20463;-93
2023/05/06 04:06:43;;;;;;;3.23;2.33;;;12.20;99.90;;;;;;5063959;28;20455;-94
2023/05/06 04:09:10;;;;;;;3.17;2.55;;;12.20;99.90;;;;;;5063131;28;20471;-94
2023/05/06 04:11:38;;;;;;;2.65;2.33;;;12.20;99.90;;;;;;5062508;28;20204;-94
2023/05/06 04:14:05;;;;;;;3.15;2.55;;;12.10;99.90;;;;;;5061182;28;20617;-93
2023/05/06 04:16:32;;;;;;;4.77;2.80;;;12.00;99.90;;;;;;5062720;28;20231;-94
2023/05/06 04:18:58;;;;;;;3.63;2.20;;;12.00;99.90;;;;;;5063828;28;20546;-93
2023/05/06 04:21:25;;;;;;;2.40;2.20;;;11.90;99.90;;;;;;5062578;28;20539;-93
2023/05/06 04:23:53;;;;;;;2.93;2.73;;;11.90;99.90;;;;;;5062920;28;20477;-92
2023/05/06 04:26:20;;;;;;;3.07;2.40;;;11.90;99.90;;;;;;5062600;28;20514;-94
2023/05/06 04:28:48;;;;;;;2.93;2.73;;;11.80;99.90;;;;;;5062560;28;20455;-94
2023/05/06 04:31:15;;;;;;;5.43;2.80;;;11.80;99.90;;;;;;5063092;28;20467;-93
2023/05/06 04:33:42;;;;;;;2.58;2.38;;;11.80;99.90;;;;;;5066831;28;20219;-94
2023/05/06 04:36:09;;;;;;;3.10;2.90;;;11.80;99.90;;;;;;5074078;28;20511;-92
2023/05/06 04:38:36;;;;;;;2.57;2.37;;;11.80;99.90;;;;;;5072985;28;20205;-91
2023/05/06 04:41:04;;;;;;;2.90;2.55;;;11.70;99.90;;;;;;5067108;28;20459;-92
2023/05/06 04:43:31;;;;;;;3.17;2.57;;;11.60;99.90;;;;;;5064621;28;20209;-92
2023/05/06 04:46:00;;;;;;;2.28;2.00;;;11.60;99.90;;;;;;5058927;28;20781;-89
2023/05/06 04:48:27;;;;;;;3.30;2.20;;;11.60;99.90;;;;;;5060379;28;20201;-91
2023/05/06 04:50:53;;;;;;;2.97;2.67;;;11.60;99.90;;;;;;5056488;28;20506;-91
2023/05/06 04:53:20;;;;;;;3.08;2.50;;;11.50;99.90;;;;;;5062393;28;20514;-91
2023/05/06 04:55:47;;;;;;;2.70;2.50;;;11.50;99.90;;;;;;5067978;28;20221;-91
2023/05/06 04:58:14;;;;;;;3.47;2.80;;;11.50;99.90;;;;;;5064446;28;20215;-91
2023/05/06 05:00:41;;;;;;;3.30;2.42;;;11.50;99.90;;;;;;5064534;28;20235;-91
2023/05/06 05:03:09;;;;;;;2.45;2.25;;;11.60;99.90;;;;;;5070935;28;20208;-91
2023/05/06 05:05:35;;;;;;;4.25;3.22;;;11.60;99.90;;;;;;5067066;28;20231;-91
2023/05/06 05:08:02;;;;;;;3.10;2.90;;;11.70;99.90;;;;;;5068797;28;20212;-90
2023/05/06 05:10:29;;;;;;;3.30;3.00;;;11.70;99.90;;;;;;5069939;28;20228;-90
2023/05/06 05:12:55;;;;;;;3.65;3.35;;;11.70;99.90;;;;;;5066922;28;20204;-91
2023/05/06 05:15:22;;;;;;;4.03;3.73;;;11.80;99.90;;;;;;5072638;28;20273;-92
2023/05/06 05:17:49;;;;;;;3.10;2.80;;;11.80;99.90;;;;;;5074854;28;20440;-91
2023/05/06 05:20:18;;;;;;;3.97;3.23;;;11.90;99.90;;;;;;5075009;28;20459;-90
2023/05/06 05:22:44;;;;;;;4.45;3.33;;;12.00;99.90;;;;;;5075172;28;20439;-92
2023/05/06 05:25:11;;;;;;;3.22;2.85;;;12.00;99.90;;;;;;5075286;28;20185;-90
2023/05/06 05:27:38;;;;;;;3.35;3.05;;;12.10;99.90;;;;;;5075174;28;20248;-89
2023/05/06 05:30:06;;;;;;;2.72;2.53;;;12.10;99.90;;;;;;5074945;28;20217;-90
2023/05/06 05:32:32;;;;;;;3.60;3.30;;;12.20;99.90;;;;;;5074835;28;20187;-92
2023/05/06 05:34:59;;;;;;;3.47;3.17;;;12.30;99.90;;;;;;5074643;28;20443;-88
2023/05/06 05:37:27;;;;;;;3.95;3.03;;;12.40;99.90;;;;;;5074664;28;20185;-92
2023/05/06 05:39:54;;;;;;;5.70;3.40;;;12.50;99.90;;;;;;5074590;28;20242;-89
2023/05/06 05:42:21;;;;;;;3.42;3.13;;;12.60;99.90;;;;;;5073613;28;20427;-89
2023/05/06 05:44:48;;;;;;;3.67;3.37;;;12.70;99.90;;;;;;5073873;28;20205;-89
2023/05/06 05:47:15;;;;;;;3.83;3.53;;;12.80;99.90;;;;;;5074537;28;20439;-91
2023/05/06 05:49:41;;;;;;;4.70;3.30;;;12.90;99.90;;;;;;5074813;28;20483;-89
2023/05/06 05:52:08;;;;;;;5.73;2.97;;;13.00;99.90;;;;;;5075114;28;20212;-89
2023/05/06 05:54:36;;;;;;;3.57;3.27;;;13.10;99.90;;;;;;5075456;28;20431;-92
2023/05/06 05:57:03;;;;;;;3.87;3.37;;;13.20;99.90;;;;;;5077960;28;20506;-93
2023/05/06 05:59:31;;;;;;;3.90;3.60;;;13.30;99.90;;;;;;5080389;28;20471;-91
2023/05/06 06:01:58;;;;;;;3.30;2.97;;;13.40;99.90;;;;;;5080535;28;20519;-92
2023/05/06 06:06:52;;;;;;;2.93;2.63;;;13.60;99.90;;;;;;5039860;28;20563;-68
2023/05/06 06:09:19;;;;;;;2.90;2.60;;;13.80;99.90;;;;;;5048703;28;20490;-69
2023/05/06 06:11:47;;;;;;;3.07;2.60;;;13.90;99.90;;;;;;5052802;28;20593;-68
2023/05/06 06:14:14;;;;;;;2.57;2.37;;;13.90;99.90;;;;;;5052883;28;20455;-68
2023/05/06 06:16:41;;;;;;;2.30;2.10;;;14.00;99.90;;;;;;5042755;28;21010;-68
2023/05/06 06:19:07;;;;;;;2.90;2.40;;;14.00;99.90;;;;;;5041458;28;20962;-69
2023/05/06 06:21:34;;;;;;;4.10;2.30;;;14.10;99.90;;;;;;5042426;28;20828;-68
2023/05/06 06:24:01;;;;;;;2.47;2.00;;;14.10;99.90;;;;;;5052816;28;20463;-68
2023/05/06 06:26:28;;;;;;;1.93;1.77;;;14.20;99.90;;;;;;5044931;28;20475;-68
2023/05/06 06:28:56;;;;;;;2.00;1.73;;;14.30;99.90;;;;;;5041288;28;20464;-68
2023/05/06 06:31:22;;;;;;;2.17;1.97;;;14.40;99.90;;;;;;5048842;28;20962;-69
2023/05/06 06:33:49;;;;;;;1.90;1.70;;;14.50;99.90;;;;;;5041442;28;20853;-69
2023/05/06 06:36:16;;;;;;;2.30;1.67;;;14.60;99.90;;;;;;5047913;28;20486;-69
2023/05/06 06:38:42;;;;;;;1.73;1.40;;;14.60;99.90;;;;;;5052491;28;20459;-69
2023/05/06 06:41:09;;;;;;;1.80;1.50;;;14.70;99.90;;;;;;5052877;28;20466;-70
2023/05/06 06:43:36;;;;;;;2.60;2.40;;;14.70;99.90;;;;;;5052346;28;20549;-69
2023/05/06 06:46:04;;;;;;;2.07;1.73;;;14.80;99.90;;;;;;5052277;28;20483;-69
2023/05/06 06:48:30;;;;;;;1.73;1.60;;;14.80;99.90;;;;;;5043328;28;20460;-69
2023/05/06 06:50:57;;;;;;;2.20;2.00;;;14.90;99.90;;;;;;5044695;28;20563;-69
2023/05/06 06:53:24;;;;;;;1.60;1.50;;;15.10;99.90;;;;;;5045192;28;20464;-69
2023/05/06 06:55:51;;;;;;;1.90;1.77;;;15.10;99.90;;;;;;5035336;28;20837;-68
2023/05/06 06:58:17;;;;;;;2.60;1.70;;;15.10;99.90;;;;;;5052661;28;20869;-68
2023/05/06 07:00:44;;;;;;;2.20;2.00;;;15.20;99.90;;;;;;5050404;28;20974;-68
2023/05/06 07:03:14;;;;;;;1.43;1.33;;;15.30;99.90;;;;;;5046116;28;20464;-70
2023/05/06 07:05:41;;;;;;;1.30;1.07;;;15.30;99.90;;;;;;5035705;28;20866;-70
2023/05/06 07:08:08;;;;;;;1.60;1.50;;;15.40;99.90;;;;;;5051743;28;20568;-69
2023/05/06 07:10:35;;;;;;;1.27;1.17;;;15.60;99.90;;;;;;5043494;28;20472;-69
2023/05/06 07:13:01;;;;;;;3.63;1.80;;;15.70;99.90;;;;;;5044572;28;20563;-69
2023/05/06 07:15:28;;;;;;;1.70;0.93;;;15.80;99.90;;;;;;5044288;28;20545;-69
2023/05/06 07:17:55;;;;;;;1.70;1.10;;;15.90;99.90;;;;;;5051925;28;20467;-69
2023/05/06 07:20:23;;;;;;;1.67;1.20;;;16.10;99.90;;;;;;5045231;28;20539;-69
2023/05/06 07:22:50;;;;;;;1.40;1.30;;;16.20;99.90;;;;;;5047977;28;20462;-70
2023/05/06 07:25:16;;;;;;;1.40;1.20;;;16.40;99.90;;;;;;5046412;28;20455;-69
2023/05/06 07:27:43;;;;;;;1.53;1.20;;;16.50;99.90;;;;;;5043492;28;20467;-69
2023/05/06 07:30:10;;;;;;;1.63;1.20;;;16.60;99.90;;;;;;5051903;28;20467;-69
2023/05/06 07:32:37;;;;;;;2.63;1.57;;;16.70;99.90;;;;;;5050622;28;20464;-70
2023/05/06 07:35:04;;;;;;;2.57;1.33;;;16.70;99.90;;;;;;5034253;28;20875;-69
2023/05/06 07:37:33;;;;;;;2.80;1.80;;;16.70;99.90;;;;;;5038773;28;20483;-69
2023/05/06 07:39:59;;;;;;;2.53;2.37;;;16.70;99.90;;;;;;5050334;28;20878;-70
2023/05/06 07:42:26;;;;;;;2.57;1.50;;;16.80;99.90;;;;;;5044209;28;20849;-69
2023/05/06 07:44:53;;;;;;;1.87;1.77;;;16.90;99.90;;;;;;5049295;28;20468;-70
2023/05/06 07:47:27;;;;;;;1.37;1.27;;;16.80;99.90;;;;;;5041563;28;20479;-69
2023/05/06 07:49:54;;;;;;;1.77;1.50;;;17.00;99.90;;;;;;5034865;28;20905;-70
2023/05/06 07:52:20;;;;;;;1.50;1.40;;;16.90;99.90;;;;;;5036525;28;20555;-70
2023/05/06 07:54:48;;;;;;;1.33;1.23;;;17.00;99.90;;;;;;5048013;28;20490;-70
2023/05/06 07:57:16;;;;;;;1.20;1.10;;;17.10;99.90;;;;;;5043225;28;20475;-69
2023/05/06 07:59:43;;;;;;;1.77;1.67;;;17.20;99.90;;;;;;5050995;28;20460;-70
2023/05/06 08:02:09;;;;;;;1.10;1.00;;;17.20;99.90;;;;;;5046493;28;20584;-70
2023/05/06 08:04:36;;;;;;;1.93;1.50;;;17.30;99.90;;;;;;5039455;28;20464;-70
2023/05/06 08:07:03;;;;;;;2.40;1.33;;;17.40;99.90;;;;;;5039183;28;20999;-70
2023/05/06 08:09:30;;;;;;;1.30;1.20;;;17.50;99.90;;;;;;5047323;28;20471;-70
2023/05/06 08:11:58;;;;;;;1.83;1.20;;;17.70;99.90;;;;;;5042827;28;20472;-70
2023/05/06 08:14:25;;;;;;;1.80;1.30;;;18.00;99.90;;;;;;5042885;28;20521;-70
2023/05/06 08:16:52;;;;;;;2.50;1.57;;;18.30;99.90;;;;;;5040000;28;20516;-70
2023/05/06 08:19:19;;;;;;;3.90;1.40;;;18.50;99.90;;;;;;5039496;28;20495;-70
2023/05/06 08:21:45;;;;;;;1.50;1.40;;;18.60;99.90;;;;;;5039444;28;20467;-70
2023/05/06 08:24:12;;;;;;;3.20;1.30;;;18.60;99.90;;;;;;5039208;28;20691;-70
2023/05/06 08:26:39;;;;;;;2.90;1.47;;;18.60;99.90;;;;;;5047871;28;20558;-70
2023/05/06 08:29:07;;;;;;;1.77;1.57;;;18.60;99.90;;;;;;5046595;28;20467;-70
2023/05/06 08:31:34;;;;;;;1.20;1.10;;;18.60;99.90;;;;;;5039482;28;20484;-70
2023/05/06 08:34:01;;;;;;;3.00;1.10;;;18.40;99.90;;;;;;5030447;28;20460;-70
2023/05/06 08:36:27;;;;;;;1.50;1.30;;;18.50;99.90;;;;;;5038289;28;20860;-70
2023/05/06 08:38:54;;;;;;;1.70;1.20;;;18.80;99.90;;;;;;5050304;28;20463;-70
2023/05/06 08:41:21;;;;;;;1.10;0.90;;;18.60;99.90;;;;;;5036471;28;20470;-70
2023/05/06 08:43:49;;;;;;;1.77;1.43;;;18.20;99.90;;;;;;5040257;28;20460;-69
2023/05/06 08:46:18;;;;;;;1.30;1.20;;;18.10;99.90;;;;;;5042560;28;20848;-70
2023/05/06 08:48:45;;;;;;;1.40;1.20;;;18.20;99.90;;;;;;5040985;28;20908;-70
2023/05/06 08:51:14;;;;;;;2.20;1.33;;;18.40;99.90;;;;;;5043664;28;20986;-69
2023/05/06 08:53:46;;;;;;;1.40;1.30;;;18.70;99.90;;;;;;5049789;28;20975;-69
2023/05/06 08:56:15;;;;;;;1.60;1.27;;;19.30;99.90;;;;;;5050719;28;20482;-69
2023/05/06 08:58:45;;;;;;;1.60;1.13;;;19.70;99.90;;;;;;5049520;28;20555;-69
2023/05/06 09:01:12;;;;;;;1.30;1.10;;;20.00;99.90;;;;;;5038803;28;20492;-69
2023/05/06 09:03:40;;;;;;;1.27;1.13;;;20.20;99.90;;;;;;5038033;28;20456;-69
2023/05/06 09:06:06;;;;;;;2.40;1.20;;;20.30;99.90;;;;;;5033957;28;20498;-68
2023/05/06 09:08:33;;;;;;;1.53;1.17;;;20.40;99.90;;;;;;5034244;28;20464;-69
2023/05/06 09:11:00;;;;;;;1.50;1.30;;;20.40;99.90;;;;;;5041101;28;21165;-69
2023/05/06 09:13:26;;;;;;;2.87;1.20;;;20.00;99.90;;;;;;5049741;28;20977;-69
2023/05/06 09:15:54;;;;;;;1.20;1.10;;;19.80;99.90;;;;;;5047558;28;20507;-69
2023/05/06 09:18:22;;;;;;;1.40;1.30;;;20.00;99.90;;;;;;5044344;28;20487;-69
2023/05/06 09:20:50;;;;;;;1.10;1.00;;;20.60;99.90;;;;;;5049566;28;20966;-69
2023/05/06 09:23:18;;;;;;;1.23;1.13;;;21.00;99.90;;;;;;5044352;28;20500;-69
2023/05/06 09:25:46;;;;;;;1.57;1.30;;;21.60;99.90;;;;;;5037948;28;20484;-69
2023/05/06 09:28:13;;;;;;;2.90;1.50;;;22.30;99.90;;;;;;5042948;28;20835;-69
2023/05/06 09:30:41;;;;;;;1.47;1.10;;;22.80;99.90;;;;;;5033943;28;20465;-69
2023/05/06 09:33:08;;;;;;;1.97;1.37;;;23.10;99.90;;;;;;5045447;28;20550;-69
2023/05/06 09:35:39;;;;;;;1.20;1.00;;;23.20;99.90;;;;;;5054207;28;20484;-69
2023/05/06 09:38:07;;;;;;;1.20;1.10;;;23.10;99.90;;;;;;5053988;28;20479;-69
2023/05/06 09:40:35;;;;;;;1.30;1.20;;;22.70;99.90;;;;;;5053870;28;20466;-70
2023/05/06 09:43:02;;;;;;;1.23;1.13;;;21.90;99.90;;;;;;5053167;28;21010;-69
2023/05/06 09:45:29;;;;;;;1.40;1.10;;;21.60;99.90;;;;;;5039011;28;20504;-69
2023/05/06 09:47:56;;;;;;;1.30;1.10;;;21.60;99.90;;;;;;5041894;28;20457;-70
2023/05/06 09:50:24;;;;;;;1.43;1.20;;;21.40;99.90;;;;;;5042161;28;20830;-69
2023/05/06 09:52:51;;;;;;;1.87;1.20;;;21.00;99.90;;;;;;5051139;28;20502;-69
2023/05/06 09:55:20;;;;;;;3.50;1.10;;;20.80;99.90;;;;;;5053703;28;20455;-69
2023/05/06 09:57:48;;;;;;;1.50;1.40;;;20.70;99.90;;;;;;5053285;28;20478;-69
2023/05/06 10:00:16;;;;;;;1.60;1.50;;;20.70;99.90;;;;;;5053301;28;20455;-69
2023/05/06 10:02:44;;;;;;;1.40;1.07;;;20.60;99.90;;;;;;5044770;28;20471;-69
2023/05/06 10:05:12;;;;;;;1.57;1.47;;;20.60;99.90;;;;;;5044919;28;20499;-69
2023/05/06 10:07:39;;;;;;;1.10;1.00;;;20.80;99.90;;;;;;5045177;28;20684;-69
2023/05/06 10:10:08;;;;;;;1.43;1.33;;;21.40;99.90;;;;;;5045166;28;20479;-69
2023/05/06 10:12:37;;;;;;;1.20;1.00;;;22.10;99.90;;;;;;5046023;28;20460;-69
2023/05/06 10:15:05;;;;;;;1.30;1.10;;;22.90;99.90;;;;;;5049762;28;20477;-70
2023/05/06 10:17:33;;;;;;;1.13;1.00;;;23.60;99.90;;;;;;5033232;28;20478;-69
2023/05/06 10:20:01;;;;;;;1.30;1.20;;;23.80;99.90;;;;;;5051699;28;20466;-69
2023/05/06 10:22:36;;;;;;;1.20;1.10;;;24.30;99.90;;;;;;5053190;28;20489;-69
2023/05/06 10:25:11;;;;;;;1.83;1.20;;;24.80;99.90;;;;;;5048878;28;20463;-70
2023/05/06 10:27:40;;;;;;;1.20;1.10;;;25.10;99.90;;;;;;5042345;28;20492;-70
2023/05/06 10:30:10;;;;;;;1.83;1.30;;;25.60;99.90;;;;;;5041513;28;20469;-70
2023/05/06 10:32:41;;;;;;;1.30;1.20;;;25.70;99.30;;;;;;5048961;28;20461;-70
2023/05/06 10:35:15;;;;;;;1.43;1.20;;;26.30;99.90;;;;;;5033684;28;20488;-70
2023/05/06 10:37:43;;;;;;;1.93;1.27;;;26.60;99.90;;;;;;5049708;28;20482;-70
2023/05/06 10:40:11;;;;;;;1.80;1.30;;;26.80;98.80;;;;;;5041347;28;20462;-70
2023/05/06 10:42:39;;;;;;;1.70;1.10;;;27.10;98.60;;;;;;5048409;28;20497;-70
2023/05/06 10:45:08;;;;;;;1.20;1.10;;;26.80;97.90;;;;;;5038307;28;20490;-70
2023/05/06 10:48:09;;;;;;;1.40;1.20;;;26.80;98.30;;;;;;5045430;28;20571;-70
2023/05/06 10:50:36;;;;;;;1.23;1.00;;;26.80;97.80;;;;;;5037733;28;20474;-69
2023/05/06 10:53:03;;;;;;;1.23;1.13;;;26.50;97.00;;;;;;5048763;28;21023;-69
2023/05/06 10:55:31;;;;;;;1.60;1.20;;;26.10;97.30;;;;;;5043045;28;20515;-69
2023/05/06 10:58:02;;;;;;;2.80;1.40;;;25.80;97.50;;;;;;5029490;28;20486;-68
2023/05/06 11:00:31;;;;;;;4.53;2.07;;;25.90;97.40;;;;;;5029259;28;20503;-68
2023/05/06 11:03:01;;;;;;;2.20;1.30;;;26.60;95.60;;;;;;5037278;28;20519;-69
2023/05/06 11:05:28;;;;;;;3.33;1.10;;;27.40;95.40;;;;;;5043772;28;20491;-68
2023/05/06 11:08:07;;;;;;;1.30;1.10;;;28.00;94.90;;;;;;5049693;28;20854;-69
2023/05/06 11:10:35;;;;;;;1.20;1.10;;;27.60;93.00;;;;;;5043025;28;20469;-68
2023/05/06 11:13:22;;;;;;;1.83;1.63;;;27.50;94.70;;;;;;5048309;28;20476;-68
2023/05/06 11:15:50;;;;;;;1.57;1.47;;;27.40;93.20;;;;;;5049668;28;20533;-68
2023/05/06 11:18:43;;;;;;;2.13;1.27;;;27.10;96.10;;;;;;5049379;28;21295;-68
2023/05/06 11:21:35;;;;;;;1.20;1.10;;;27.20;96.00;;;;;;5048887;28;20497;-68
2023/05/06 11:24:13;;;;;;;1.83;1.17;;;26.90;95.60;;;;;;5040468;28;20942;-68
2023/05/06 11:26:43;;;;;;;1.30;1.10;;;26.30;95.00;;;;;;5033781;28;20605;-70
2023/05/06 11:29:11;;;;;;;1.90;1.20;;;25.70;94.40;;;;;;5049058;28;20549;-70
2023/05/06 11:31:43;;;;;;;2.77;1.23;;;25.00;95.60;;;;;;5049267;28;21042;-70
2023/05/06 11:34:12;;;;;;;2.50;1.40;;;24.40;95.60;;;;;;5040518;28;21050;-70
2023/05/06 11:36:51;;;;;;;1.77;1.10;;;23.80;97.90;;;;;;5048899;28;21018;-70
2023/05/06 11:39:18;;;;;;;1.40;1.30;;;23.40;97.00;;;;;;5036705;28;20464;-70
2023/05/06 11:41:45;;;;;;;1.30;1.20;;;23.30;97.10;;;;;;5045443;28;20472;-70
2023/05/06 11:44:24;;;;;;;1.67;1.00;;;23.60;98.90;;;;;;5049628;28;20513;-70
2023/05/06 11:46:51;;;;;;;1.60;1.27;;;23.80;96.90;;;;;;5049381;28;20533;-70
2023/05/06 11:49:17;;;;;;;1.40;1.30;;;23.90;97.10;;;;;;5048626;28;20468;-69
2023/05/06 11:51:44;;;;;;;1.60;1.50;;;23.90;98.10;;;;;;5042958;28;20828;-69
2023/05/06 11:54:11;;;;;;;2.00;1.40;;;23.90;99.90;;;;;;5050015;28;20468;-69
2023/05/06 11:56:46;;;;;;;1.50;1.40;;;24.30;98.40;;;;;;5051242;28;20475;-69
2023/05/06 11:59:14;;;;;;;1.30;1.20;;;25.10;98.10;;;;;;5050788;28;20554;-70
2023/05/06 12:01:42;;;;;;;1.30;1.20;;;25.30;96.80;;;;;;5051023;28;20475;-69
2023/05/06 12:04:10;;;;;;;1.37;1.27;;;25.00;97.40;;;;;;5050262;28;20554;-70
2023/05/06 12:06:39;;;;;;;5.30;1.70;;;24.70;98.30;;;;;;5124514;22;20555;-93
2023/05/06 12:09:09;;;;;;;1.80;1.30;;;24.20;98.00;;;;;;5065910;28;20435;-95
2023/05/06 12:11:37;;;;;;;1.57;1.47;;;23.90;98.40;;;;;;5078493;28;20523;-93
2023/05/06 12:14:09;;;;;;;1.77;1.40;;;23.70;97.80;;;;;;5071690;28;20487;-94
2023/05/06 12:16:42;;;;;;;1.50;1.40;;;24.00;99.00;;;;;;5072175;28;20511;-92
2023/05/06 12:19:09;;;;;;;1.93;1.30;;;24.40;98.20;;;;;;5068836;28;20503;-93
2023/05/06 12:21:39;;;;;;;1.50;1.33;;;24.30;97.90;;;;;;5070136;28;21029;-93
2023/05/06 12:24:07;;;;;;;1.73;1.30;;;24.10;98.10;;;;;;5072705;28;20432;-95
2023/05/06 12:26:54;;;;;;;1.53;1.20;;;24.00;98.70;;;;;;5074685;28;20516;-94
2023/05/06 12:29:21;;;;;;;1.40;1.30;;;24.40;99.20;;;;;;5075418;28;20554;-92
2023/05/06 12:32:07;;;;;;;2.47;1.53;;;24.60;96.90;;;;;;5074531;28;20854;-93
2023/05/06 12:37:38;;;;;;;1.67;1.57;;;23.70;98.30;;;;;;5049125;28;20510;-93
2023/05/06 12:40:07;;;;;;;2.27;1.83;;;23.30;98.60;;;;;;5051695;28;20487;-93
2023/05/06 12:42:33;;;;;;;1.70;1.57;;;23.00;97.50;;;;;;5052154;28;20443;-95
2023/05/06 12:45:24;;;;;;;1.77;1.40;;;22.80;99.60;;;;;;5055175;28;20568;-94
2023/05/06 12:51:25;;;;;;;1.57;1.47;;;24.60;98.60;;;;;;5053123;28;20489;-95
2023/05/06 12:57:15;;;;;;;1.70;1.43;;;26.00;95.80;;;;;;5052974;28;20566;-94
2023/05/06 12:59:45;;;;;;;1.80;1.43;;;26.20;95.30;;;;;;5065204;23;20456;-68
2023/05/06 13:02:13;;;;;;;1.93;1.30;;;26.50;95.70;;;;;;5030916;28;20460;-69
2023/05/06 13:04:41;;;;;;;1.30;1.20;;;26.50;95.40;;;;;;5031236;28;20493;-69
2023/05/06 13:07:08;;;;;;;1.63;1.40;;;26.80;97.50;;;;;;5016435;28;20539;-69